OCN75M EDDF-LCLK

Flight info

Callsign OCN75M
Flight time 3h 29m
Altitude 37000
Route CINDY8S/18 CINDY Z74 LAMPU DCT NOMBO Y161 MAH DCT VAVOR DCT RADIZ DCT MODRO DCT DARZA DCT PINDO DCT LUSES DCT NEVRA DCT AKINA DCT USINI UL995 RDS UM601 EVENO DCT DASNI M601 BONEK
Aircraft A320/M-SDE2E3FGIJ1LORWXYZ/HB1

Departure

Time 2026-04-07 18:22
Airport Frankfurt Main Airport (EDDF)

Arrival

Time 2026-04-07 21:51
Airport Larnaca International Airport (LCLK)
Time Latitude Longitude Altitude Speed Heading
2026-04-07 17:41 50.04834 8.58835 365 ft 0 kts 340°
2026-04-07 17:57 50.04829 8.58838 365 ft 2 kts 340°
2026-04-07 17:57 50.04811 8.58848 369 ft 3 kts 340°
2026-04-07 17:58 50.04792 8.58859 368 ft 3 kts 340°
2026-04-07 17:58 50.04773 8.58869 368 ft 2 kts 340°
2026-04-07 17:58 50.04767 8.58873 369 ft 0 kts 340°
2026-04-07 18:05 50.04768 8.58870 368 ft 1 kts 319°
2026-04-07 18:05 50.04753 8.58850 371 ft 4 kts 213°
2026-04-07 18:06 50.04712 8.58728 371 ft 24 kts 248°
2026-04-07 18:06 50.04644 8.58448 371 ft 29 kts 250°
2026-04-07 18:06 50.04612 8.58311 371 ft 11 kts 250°
2026-04-07 18:06 50.04607 8.58289 370 ft 0 kts 249°
2026-04-07 18:07 50.04605 8.58282 369 ft 0 kts 249°
2026-04-07 18:08 50.04604 8.58279 368 ft 2 kts 249°
2026-04-07 18:08 50.04572 8.58144 363 ft 25 kts 250°
2026-04-07 18:08 50.04513 8.57895 368 ft 10 kts 250°
2026-04-07 18:09 50.04504 8.57858 366 ft 0 kts 249°
2026-04-07 18:09 50.04497 8.57828 366 ft 11 kts 250°
2026-04-07 18:09 50.04471 8.57718 364 ft 10 kts 250°
2026-04-07 18:09 50.04446 8.57617 370 ft 15 kts 249°
2026-04-07 18:10 50.04388 8.57370 363 ft 29 kts 250°
2026-04-07 18:10 50.04318 8.57078 362 ft 27 kts 250°
2026-04-07 18:10 50.04252 8.56803 365 ft 26 kts 249°
2026-04-07 18:10 50.04191 8.56545 358 ft 17 kts 249°
2026-04-07 18:11 50.04179 8.56498 362 ft 0 kts 250°
2026-04-07 18:11 50.04179 8.56497 361 ft 0 kts 250°
2026-04-07 18:12 50.04176 8.56484 360 ft 7 kts 250°
2026-04-07 18:13 50.04140 8.56330 358 ft 17 kts 249°
2026-04-07 18:13 50.04100 8.56165 352 ft 16 kts 250°
2026-04-07 18:13 50.04069 8.56038 353 ft 15 kts 249°
2026-04-07 18:13 50.04012 8.55795 355 ft 29 kts 249°
2026-04-07 18:14 50.03944 8.55511 355 ft 28 kts 249°
2026-04-07 18:14 50.03874 8.55221 357 ft 29 kts 249°
2026-04-07 18:14 50.03801 8.54914 353 ft 31 kts 250°
2026-04-07 18:14 50.03730 8.54621 353 ft 11 kts 250°
2026-04-07 18:15 50.03729 8.54614 351 ft 0 kts 250°
2026-04-07 18:15 50.03727 8.54608 350 ft 1 kts 250°
2026-04-07 18:15 50.03722 8.54585 349 ft 7 kts 251°
2026-04-07 18:15 50.03703 8.54503 351 ft 0 kts 249°
2026-04-07 18:16 50.03702 8.54501 350 ft 0 kts 250°
2026-04-07 18:16 50.03699 8.54486 347 ft 9 kts 250°
2026-04-07 18:17 50.03653 8.54292 344 ft 11 kts 250°
2026-04-07 18:17 50.03628 8.54192 351 ft 9 kts 249°
2026-04-07 18:17 50.03602 8.54084 351 ft 17 kts 249°
2026-04-07 18:17 50.03546 8.53846 335 ft 17 kts 250°
2026-04-07 18:18 50.03504 8.53673 337 ft 17 kts 249°
2026-04-07 18:18 50.03455 8.53467 336 ft 25 kts 249°
2026-04-07 18:18 50.03391 8.53201 336 ft 27 kts 249°
2026-04-07 18:18 50.03337 8.52977 334 ft 22 kts 250°
2026-04-07 18:19 50.03286 8.52759 333 ft 7 kts 249°
2026-04-07 18:19 50.03283 8.52749 331 ft 0 kts 249°
2026-04-07 18:20 50.03255 8.52666 332 ft 19 kts 230°
2026-04-07 18:20 50.03157 8.52596 332 ft 0 kts 180°
2026-04-07 18:21 50.03127 8.52596 335 ft 21 kts 180°
2026-04-07 18:21 50.02695 8.52601 333 ft 98 kts 180°
2026-04-07 18:21 50.01804 8.52611 334 ft 155 kts 180°
2026-04-07 18:22 50.00617 8.52630 673 ft 173 kts 177°
2026-04-07 18:22 49.99427 8.52655 1463 ft 171 kts 177°
2026-04-07 18:22 49.98199 8.52671 1975 ft 185 kts 173°
2026-04-07 18:22 49.96910 8.53233 2292 ft 204 kts 146°
2026-04-07 18:23 49.95868 8.54816 2736 ft 218 kts 118°
2026-04-07 18:23 49.95120 8.56903 3521 ft 224 kts 117°
2026-04-07 18:23 49.94372 8.59071 3910 ft 228 kts 110°
2026-04-07 18:23 49.94029 8.61512 4416 ft 243 kts 92°
2026-04-07 18:24 49.93923 8.64243 5006 ft 259 kts 92°
2026-04-07 18:24 49.93737 8.67065 5803 ft 268 kts 102°
2026-04-07 18:24 49.93314 8.68880 6355 ft 273 kts 116°
2026-04-07 18:24 49.92157 8.71258 7167 ft 281 kts 136°
2026-04-07 18:25 49.90571 8.73077 7984 ft 287 kts 143°
2026-04-07 18:25 49.88980 8.74985 8812 ft 291 kts 134°
2026-04-07 18:25 49.87715 8.77441 9615 ft 293 kts 118°
2026-04-07 18:25 49.86701 8.80252 10414 ft 298 kts 116°
2026-04-07 18:26 49.85677 8.83118 10782 ft 319 kts 116°
2026-04-07 18:26 49.84567 8.86210 11145 ft 337 kts 117°
2026-04-07 18:26 49.83411 8.89408 11279 ft 341 kts 117°
2026-04-07 18:26 49.82234 8.92639 11782 ft 346 kts 117°
2026-04-07 18:27 49.81047 8.95898 12627 ft 348 kts 117°
2026-04-07 18:27 49.79853 8.99173 13387 ft 352 kts 117°
2026-04-07 18:27 49.78645 9.02484 14120 ft 356 kts 116°
2026-04-07 18:27 49.77414 9.05862 14772 ft 360 kts 116°
2026-04-07 18:28 49.76291 9.09341 15395 ft 362 kts 108°
2026-04-07 18:28 49.75576 9.13109 16028 ft 363 kts 100°
2026-04-07 18:28 49.74840 9.16869 16654 ft 370 kts 109°
2026-04-07 18:28 49.73626 9.20417 17259 ft 378 kts 121°
2026-04-07 18:29 49.71962 9.23613 17868 ft 384 kts 129°
2026-04-07 18:29 49.70187 9.26726 18480 ft 388 kts 129°
2026-04-07 18:29 49.68398 9.29874 19027 ft 392 kts 129°
2026-04-07 18:29 49.66592 9.33051 19575 ft 395 kts 129°
2026-04-07 18:30 49.64772 9.36254 20106 ft 398 kts 129°
2026-04-07 18:30 49.62923 9.39454 20644 ft 402 kts 133°
2026-04-07 18:30 49.60792 9.42295 21163 ft 408 kts 143°
2026-04-07 18:30 49.58379 9.44622 21679 ft 412 kts 148°
2026-04-07 18:31 49.55906 9.46891 22196 ft 415 kts 148°
2026-04-07 18:31 49.53418 9.49162 22702 ft 418 kts 148°
2026-04-07 18:31 49.50908 9.51449 23204 ft 421 kts 148°
2026-04-07 18:31 49.48378 9.53751 23707 ft 424 kts 148°
2026-04-07 18:32 49.45835 9.56065 24143 ft 426 kts 148°
2026-04-07 18:32 49.43274 9.58394 24551 ft 429 kts 148°
2026-04-07 18:32 49.40700 9.60734 24956 ft 432 kts 148°
2026-04-07 18:32 49.38102 9.63089 25362 ft 434 kts 148°
2026-04-07 18:33 49.35498 9.65462 25759 ft 436 kts 147°
2026-04-07 18:33 49.33067 9.68242 26145 ft 437 kts 136°
2026-04-07 18:33 49.30899 9.71515 26532 ft 438 kts 133°
2026-04-07 18:33 49.28751 9.74840 26924 ft 441 kts 133°
2026-04-07 18:34 49.26554 9.78225 27310 ft 443 kts 133°
2026-04-07 18:34 49.24395 9.81526 27674 ft 446 kts 133°
2026-04-07 18:34 49.22161 9.84924 28047 ft 448 kts 133°
2026-04-07 18:34 49.19945 9.88282 28408 ft 451 kts 133°
2026-04-07 18:35 49.17712 9.91662 28761 ft 453 kts 133°
2026-04-07 18:35 49.15465 9.95062 29130 ft 456 kts 133°
2026-04-07 18:35 49.13202 9.98483 29469 ft 458 kts 133°
2026-04-07 18:35 49.10925 10.01922 29814 ft 461 kts 133°
2026-04-07 18:36 49.08638 10.05367 30156 ft 463 kts 133°
2026-04-07 18:36 49.06337 10.08830 30476 ft 466 kts 133°
2026-04-07 18:36 49.04006 10.12270 30749 ft 468 kts 134°
2026-04-07 18:36 49.01624 10.15677 31027 ft 471 kts 135°
2026-04-07 18:37 48.99242 10.19011 31294 ft 473 kts 136°
2026-04-07 18:37 48.96804 10.22392 31564 ft 474 kts 136°
2026-04-07 18:37 48.94368 10.25772 31858 ft 475 kts 136°
2026-04-07 18:37 48.91936 10.29172 32234 ft 474 kts 136°
2026-04-07 18:38 48.89511 10.32585 32625 ft 473 kts 136°
2026-04-07 18:38 48.87088 10.36002 32996 ft 472 kts 136°
2026-04-07 18:38 48.84686 10.39385 33365 ft 472 kts 136°
2026-04-07 18:38 48.82285 10.42800 33729 ft 471 kts 135°
2026-04-07 18:39 48.79970 10.46304 34088 ft 470 kts 133°
2026-04-07 18:39 48.77734 10.49876 34438 ft 469 kts 131°
2026-04-07 18:39 48.75516 10.53526 34741 ft 469 kts 131°
2026-04-07 18:39 48.73313 10.57176 35016 ft 469 kts 131°
2026-04-07 18:40 48.71132 10.60758 35281 ft 469 kts 131°
2026-04-07 18:40 48.68901 10.64367 35551 ft 468 kts 132°
2026-04-07 18:40 48.66648 10.67960 35812 ft 468 kts 132°
2026-04-07 18:40 48.64504 10.71350 36051 ft 468 kts 132°
2026-04-07 18:41 48.62243 10.74907 36300 ft 468 kts 132°
2026-04-07 18:41 48.59986 10.78455 36547 ft 467 kts 132°
2026-04-07 18:41 48.57737 10.82086 36785 ft 467 kts 130°
2026-04-07 18:41 48.55759 10.85548 37004 ft 466 kts 128°
2026-04-07 18:42 48.53713 10.89369 37212 ft 466 kts 126°
2026-04-07 18:42 48.51724 10.93215 37276 ft 464 kts 126°
2026-04-07 18:42 48.47762 11.00859 37276 ft 462 kts 126°
2026-04-07 18:43 48.43727 11.08397 37274 ft 462 kts 127°
2026-04-07 18:43 48.39632 11.15877 37273 ft 462 kts 127°
2026-04-07 18:44 48.35538 11.23338 37274 ft 463 kts 127°
2026-04-07 18:44 48.31427 11.30874 37271 ft 462 kts 127°
2026-04-07 18:45 48.27352 11.38345 37270 ft 462 kts 127°
2026-04-07 18:45 48.23273 11.45785 37269 ft 462 kts 127°
2026-04-07 18:46 48.19186 11.53209 37266 ft 462 kts 127°
2026-04-07 18:46 48.15068 11.60660 37262 ft 462 kts 127°
2026-04-07 18:47 48.10963 11.68065 37259 ft 462 kts 127°
2026-04-07 18:47 48.06851 11.75463 37252 ft 462 kts 127°
2026-04-07 18:48 48.02737 11.82849 37257 ft 463 kts 127°
2026-04-07 18:48 47.98614 11.90237 37246 ft 463 kts 127°
2026-04-07 18:49 47.94486 11.97605 37245 ft 463 kts 127°
2026-04-07 18:49 47.90355 12.04962 37248 ft 463 kts 127°
2026-04-07 18:50 47.86220 12.12317 37249 ft 463 kts 127°
2026-04-07 18:50 47.82076 12.19667 37252 ft 463 kts 127°
2026-04-07 18:51 47.77930 12.26988 37256 ft 463 kts 127°
2026-04-07 18:51 47.73767 12.34320 37255 ft 463 kts 128°
2026-04-07 18:52 47.69613 12.41614 37259 ft 463 kts 128°
2026-04-07 18:52 47.65474 12.48874 37257 ft 463 kts 128°
2026-04-07 18:53 47.61027 12.55819 37245 ft 466 kts 139°
2026-04-07 18:53 47.55988 12.61895 37249 ft 466 kts 139°
2026-04-07 18:54 47.50983 12.67937 37251 ft 466 kts 139°
2026-04-07 18:54 47.45938 12.74029 37247 ft 466 kts 139°
2026-04-07 18:55 47.40907 12.80082 37251 ft 467 kts 139°
2026-04-07 18:55 47.35899 12.86087 37253 ft 467 kts 139°
2026-04-07 18:56 47.30866 12.92110 37237 ft 466 kts 139°
2026-04-07 18:56 47.25808 12.98147 37237 ft 466 kts 139°
2026-04-07 18:57 47.20763 13.04153 37223 ft 466 kts 139°
2026-04-07 18:57 47.15712 13.10147 37225 ft 467 kts 139°
2026-04-07 18:58 47.11517 13.15118 37223 ft 467 kts 139°
2026-04-07 18:58 47.06449 13.21109 37203 ft 467 kts 139°
2026-04-07 18:59 47.01379 13.27084 37196 ft 468 kts 139°
2026-04-07 18:59 46.96295 13.33049 37177 ft 468 kts 139°
2026-04-07 19:00 46.91209 13.39012 37170 ft 469 kts 139°
2026-04-07 19:00 46.86108 13.44996 37157 ft 470 kts 139°
2026-04-07 19:01 46.80997 13.50966 37147 ft 470 kts 139°
2026-04-07 19:02 46.73330 13.59878 37143 ft 470 kts 139°
2026-04-07 19:02 46.68214 13.65804 37152 ft 469 kts 139°
2026-04-07 19:03 46.63108 13.71717 37163 ft 469 kts 139°
2026-04-07 19:03 46.57995 13.77621 37159 ft 468 kts 140°
2026-04-07 19:04 46.52889 13.83496 37165 ft 468 kts 140°
2026-04-07 19:04 46.47785 13.89360 37136 ft 467 kts 140°
2026-04-07 19:05 46.42681 13.95213 37143 ft 467 kts 140°
2026-04-07 19:05 46.37571 14.01051 37146 ft 467 kts 140°
2026-04-07 19:06 46.32495 14.06836 37141 ft 467 kts 140°
2026-04-07 19:06 46.27372 14.12657 37133 ft 466 kts 140°
2026-04-07 19:07 46.22281 14.18432 37125 ft 466 kts 140°
2026-04-07 19:07 46.17180 14.24204 37120 ft 467 kts 140°
2026-04-07 19:08 46.12067 14.29976 37115 ft 467 kts 140°
2026-04-07 19:08 46.06954 14.35730 37114 ft 467 kts 140°
2026-04-07 19:09 46.01852 14.41508 37120 ft 466 kts 140°
2026-04-07 19:09 45.96773 14.47334 37133 ft 466 kts 139°
2026-04-07 19:10 45.91709 14.53136 37140 ft 465 kts 140°
2026-04-07 19:10 45.86637 14.58907 37137 ft 465 kts 140°
2026-04-07 19:11 45.81569 14.64657 37144 ft 465 kts 140°
2026-04-07 19:11 45.76491 14.70409 37138 ft 465 kts 140°
2026-04-07 19:12 45.71405 14.76141 37134 ft 465 kts 140°
2026-04-07 19:12 45.66317 14.81862 37132 ft 465 kts 140°
2026-04-07 19:13 45.61231 14.87581 37136 ft 465 kts 140°
2026-04-07 19:13 45.56140 14.93299 37134 ft 465 kts 140°
2026-04-07 19:14 45.51046 14.99002 37133 ft 466 kts 140°
2026-04-07 19:14 45.46054 15.04853 37134 ft 464 kts 136°
2026-04-07 19:15 45.41377 15.11199 37133 ft 464 kts 133°
2026-04-07 19:15 45.36767 15.17605 37134 ft 464 kts 134°
2026-04-07 19:16 45.32070 15.23889 37135 ft 464 kts 135°
2026-04-07 19:16 45.27328 15.30092 37138 ft 464 kts 135°
2026-04-07 19:17 45.22578 15.36290 37132 ft 464 kts 135°
2026-04-07 19:17 45.17836 15.42502 37136 ft 464 kts 135°
2026-04-07 19:18 45.13093 15.48718 37138 ft 464 kts 135°
2026-04-07 19:18 45.08354 15.54912 37133 ft 464 kts 135°
2026-04-07 19:19 45.03604 15.61109 37133 ft 464 kts 135°
2026-04-07 19:19 44.98856 15.67284 37129 ft 464 kts 136°
2026-04-07 19:20 44.94092 15.73452 37133 ft 464 kts 136°
2026-04-07 19:20 44.89328 15.79605 37135 ft 464 kts 136°
2026-04-07 19:21 44.84593 15.85714 37144 ft 464 kts 136°
2026-04-07 19:21 44.79823 15.91855 37147 ft 464 kts 136°
2026-04-07 19:22 44.75057 15.97981 37149 ft 464 kts 136°
2026-04-07 19:22 44.70289 16.04088 37151 ft 463 kts 136°
2026-04-07 19:23 44.65517 16.10179 37149 ft 463 kts 136°
2026-04-07 19:23 44.60733 16.16288 37148 ft 463 kts 136°
2026-04-07 19:24 44.55952 16.22372 37151 ft 463 kts 136°
2026-04-07 19:24 44.51175 16.28433 37155 ft 463 kts 136°
2026-04-07 19:25 44.46404 16.34467 37160 ft 462 kts 136°
2026-04-07 19:25 44.41630 16.40491 37163 ft 462 kts 136°
2026-04-07 19:26 44.36864 16.46503 37161 ft 462 kts 136°
2026-04-07 19:26 44.32091 16.52509 37157 ft 461 kts 136°
2026-04-07 19:27 44.27320 16.58504 37157 ft 461 kts 137°
2026-04-07 19:27 44.22543 16.64485 37157 ft 461 kts 137°
2026-04-07 19:28 44.17770 16.70445 37156 ft 461 kts 137°
2026-04-07 19:28 44.12988 16.76397 37157 ft 461 kts 137°
2026-04-07 19:29 44.08234 16.82304 37164 ft 460 kts 137°
2026-04-07 19:29 44.03453 16.88237 37161 ft 460 kts 137°
2026-04-07 19:30 43.98678 16.94146 37163 ft 460 kts 137°
2026-04-07 19:30 43.93858 17.00091 37161 ft 460 kts 137°
2026-04-07 19:31 43.89104 17.05944 37163 ft 460 kts 137°
2026-04-07 19:31 43.84287 17.11865 37164 ft 459 kts 137°
2026-04-07 19:32 43.79507 17.17742 37167 ft 459 kts 137°
2026-04-07 19:32 43.74735 17.23606 37166 ft 459 kts 137°
2026-04-07 19:33 43.69941 17.29445 37167 ft 459 kts 137°
2026-04-07 19:33 43.65150 17.35271 37162 ft 459 kts 137°
2026-04-07 19:34 43.60367 17.41097 37162 ft 459 kts 137°
2026-04-07 19:34 43.55571 17.46915 37161 ft 458 kts 137°
2026-04-07 19:35 43.50789 17.52711 37158 ft 458 kts 138°
2026-04-07 19:35 43.45995 17.58504 37152 ft 458 kts 138°
2026-04-07 19:36 43.41211 17.64271 37150 ft 458 kts 138°
2026-04-07 19:36 43.37228 17.69057 37147 ft 457 kts 138°
2026-04-07 19:37 43.32426 17.74806 37143 ft 457 kts 138°
2026-04-07 19:37 43.27642 17.80539 37145 ft 457 kts 138°
2026-04-07 19:38 43.22854 17.86268 37145 ft 457 kts 138°
2026-04-07 19:38 43.18061 17.91989 37151 ft 457 kts 138°
2026-04-07 19:39 43.13267 17.97696 37153 ft 456 kts 138°
2026-04-07 19:39 43.08476 18.03394 37159 ft 456 kts 138°
2026-04-07 19:40 43.03681 18.09075 37171 ft 456 kts 139°
2026-04-07 19:40 42.98883 18.14731 37170 ft 456 kts 139°
2026-04-07 19:41 42.94087 18.20388 37170 ft 455 kts 139°
2026-04-07 19:41 42.89291 18.26036 37175 ft 455 kts 139°
2026-04-07 19:42 42.84499 18.31675 37171 ft 455 kts 139°
2026-04-07 19:42 42.79704 18.37301 37174 ft 454 kts 139°
2026-04-07 19:43 42.74909 18.42904 37177 ft 454 kts 139°
2026-04-07 19:43 42.70120 18.48488 37176 ft 454 kts 139°
2026-04-07 19:44 42.65358 18.54039 37173 ft 454 kts 139°
2026-04-07 19:44 42.60567 18.59608 37174 ft 453 kts 139°
2026-04-07 19:45 42.55773 18.65172 37173 ft 453 kts 139°
2026-04-07 19:45 42.50980 18.70717 37175 ft 453 kts 139°
2026-04-07 19:46 42.46183 18.76256 37176 ft 453 kts 139°
2026-04-07 19:46 42.41396 18.81780 37174 ft 453 kts 139°
2026-04-07 19:47 42.36533 18.87372 37172 ft 452 kts 139°
2026-04-07 19:47 42.31793 18.92810 37169 ft 452 kts 139°
2026-04-07 19:48 42.27001 18.98305 37167 ft 452 kts 139°
2026-04-07 19:48 42.22206 19.03786 37168 ft 452 kts 139°
2026-04-07 19:49 42.17407 19.09264 37169 ft 452 kts 139°
2026-04-07 19:49 42.12612 19.14724 37168 ft 451 kts 139°
2026-04-07 19:50 42.07811 19.20169 37169 ft 451 kts 139°
2026-04-07 19:50 42.03010 19.25611 37161 ft 451 kts 139°
2026-04-07 19:51 41.98212 19.31045 37160 ft 451 kts 139°
2026-04-07 19:51 41.93404 19.36470 37160 ft 451 kts 140°
2026-04-07 19:52 41.88568 19.41912 37163 ft 451 kts 140°
2026-04-07 19:52 41.83793 19.47288 37161 ft 451 kts 140°
2026-04-07 19:53 41.78988 19.52686 37165 ft 451 kts 140°
2026-04-07 19:53 41.74181 19.58073 37166 ft 450 kts 140°
2026-04-07 19:54 41.69370 19.63456 37169 ft 450 kts 140°
2026-04-07 19:54 41.64566 19.68814 37175 ft 450 kts 140°
2026-04-07 19:55 41.59751 19.74170 37193 ft 450 kts 140°
2026-04-07 19:55 41.54909 19.79556 37199 ft 450 kts 140°
2026-04-07 19:56 41.50128 19.84863 37200 ft 450 kts 140°
2026-04-07 19:56 41.45312 19.90187 37198 ft 450 kts 140°
2026-04-07 19:57 41.40493 19.95508 37195 ft 450 kts 140°
2026-04-07 19:57 41.35673 20.00822 37189 ft 450 kts 140°
2026-04-07 19:58 41.30851 20.06123 37189 ft 450 kts 140°
2026-04-07 19:58 41.26022 20.11420 37187 ft 450 kts 140°
2026-04-07 19:59 41.21200 20.16715 37188 ft 450 kts 140°
2026-04-07 19:59 41.16336 20.22044 37184 ft 450 kts 140°
2026-04-07 20:00 41.11526 20.27283 37192 ft 450 kts 140°
2026-04-07 20:00 41.04267 20.35184 37187 ft 450 kts 140°
2026-04-07 20:01 40.99426 20.40438 37187 ft 450 kts 140°
2026-04-07 20:01 40.94585 20.45683 37184 ft 449 kts 140°
2026-04-07 20:02 40.89747 20.50922 37183 ft 449 kts 140°
2026-04-07 20:02 40.84911 20.56143 37188 ft 449 kts 140°
2026-04-07 20:03 40.80075 20.61356 37179 ft 449 kts 140°
2026-04-07 20:03 40.75236 20.66558 37178 ft 449 kts 140°
2026-04-07 20:04 40.70399 20.71745 37181 ft 448 kts 140°
2026-04-07 20:04 40.65555 20.76926 37173 ft 448 kts 140°
2026-04-07 20:05 40.60713 20.82102 37172 ft 448 kts 140°
2026-04-07 20:05 40.55876 20.87275 37170 ft 448 kts 140°
2026-04-07 20:06 40.51039 20.92426 37167 ft 447 kts 140°
2026-04-07 20:06 40.46347 20.97783 37160 ft 447 kts 135°
2026-04-07 20:07 40.41895 21.03465 37153 ft 447 kts 135°
2026-04-07 20:07 40.37433 21.09140 37147 ft 447 kts 135°
2026-04-07 20:08 40.32967 21.14804 37141 ft 447 kts 135°
2026-04-07 20:08 40.28493 21.20458 37132 ft 447 kts 135°
2026-04-07 20:09 40.24021 21.26110 37132 ft 447 kts 135°
2026-04-07 20:09 40.19551 21.31752 37126 ft 447 kts 135°
2026-04-07 20:10 40.15071 21.37395 37121 ft 447 kts 135°
2026-04-07 20:10 40.10589 21.43023 37124 ft 447 kts 135°
2026-04-07 20:11 40.06104 21.48645 37129 ft 447 kts 135°
2026-04-07 20:11 40.01617 21.54269 37125 ft 447 kts 135°
2026-04-07 20:12 39.97126 21.59878 37118 ft 447 kts 135°
2026-04-07 20:12 39.92629 21.65478 37108 ft 447 kts 135°
2026-04-07 20:13 39.88133 21.71072 37113 ft 447 kts 135°
2026-04-07 20:13 39.83630 21.76664 37108 ft 447 kts 135°
2026-04-07 20:14 39.79131 21.82242 37098 ft 447 kts 135°
2026-04-07 20:14 39.74628 21.87820 37105 ft 447 kts 135°
2026-04-07 20:15 39.70125 21.93395 37099 ft 447 kts 135°
2026-04-07 20:15 39.65617 21.98943 37089 ft 447 kts 135°
2026-04-07 20:16 39.61105 22.04481 37090 ft 446 kts 135°
2026-04-07 20:16 39.56595 22.10021 37099 ft 446 kts 135°
2026-04-07 20:17 39.52085 22.15553 37095 ft 446 kts 135°
2026-04-07 20:17 39.47573 22.21077 37085 ft 446 kts 135°
2026-04-07 20:18 39.43819 22.25667 37076 ft 447 kts 135°
2026-04-07 20:18 39.39302 22.31180 37083 ft 447 kts 135°
2026-04-07 20:19 39.34774 22.36687 37086 ft 447 kts 135°
2026-04-07 20:19 39.30537 22.42522 37079 ft 445 kts 123°
2026-04-07 20:20 39.27120 22.49167 37070 ft 444 kts 122°
2026-04-07 20:20 39.23692 22.55803 37063 ft 445 kts 122°
2026-04-07 20:21 39.20248 22.62435 37056 ft 445 kts 122°
2026-04-07 20:21 39.16801 22.69059 37057 ft 445 kts 122°
2026-04-07 20:22 39.13353 22.75684 37057 ft 445 kts 122°
2026-04-07 20:22 39.09907 22.82309 37058 ft 445 kts 122°
2026-04-07 20:23 39.06458 22.88930 37064 ft 445 kts 122°
2026-04-07 20:23 39.03021 22.95494 37069 ft 445 kts 122°
2026-04-07 20:24 38.99534 23.02137 37072 ft 445 kts 122°
2026-04-07 20:24 38.96090 23.08691 37075 ft 445 kts 122°
2026-04-07 20:25 38.92622 23.15288 37083 ft 446 kts 122°
2026-04-07 20:25 38.89147 23.21876 37082 ft 446 kts 122°
2026-04-07 20:26 38.85665 23.28459 37074 ft 446 kts 122°
2026-04-07 20:26 38.82184 23.35037 37084 ft 446 kts 122°
2026-04-07 20:27 38.78701 23.41615 37083 ft 446 kts 122°
2026-04-07 20:27 38.75209 23.48184 37083 ft 446 kts 122°
2026-04-07 20:28 38.71707 23.54741 37086 ft 446 kts 122°
2026-04-07 20:28 38.68205 23.61304 37091 ft 446 kts 122°
2026-04-07 20:29 38.64702 23.67858 37091 ft 446 kts 122°
2026-04-07 20:29 38.61184 23.74405 37092 ft 446 kts 122°
2026-04-07 20:30 38.57664 23.80942 37094 ft 446 kts 122°
2026-04-07 20:30 38.54173 23.87433 37093 ft 446 kts 122°
2026-04-07 20:31 38.50653 23.93967 37096 ft 446 kts 122°
2026-04-07 20:31 38.47126 24.00495 37095 ft 447 kts 122°
2026-04-07 20:32 38.43600 24.07007 37092 ft 447 kts 122°
2026-04-07 20:32 38.40062 24.13526 37092 ft 447 kts 122°
2026-04-07 20:33 38.36526 24.20040 37092 ft 447 kts 122°
2026-04-07 20:33 38.32986 24.26547 37091 ft 447 kts 122°
2026-04-07 20:34 38.29440 24.33048 37091 ft 447 kts 122°
2026-04-07 20:34 38.25888 24.39539 37093 ft 447 kts 122°
2026-04-07 20:35 38.22330 24.46026 37097 ft 447 kts 122°
2026-04-07 20:35 38.18764 24.52511 37095 ft 447 kts 122°
2026-04-07 20:36 38.14958 24.58762 37093 ft 449 kts 129°
2026-04-07 20:36 38.10852 24.64734 37099 ft 449 kts 129°
2026-04-07 20:37 38.06741 24.70701 37098 ft 449 kts 129°
2026-04-07 20:37 38.02663 24.76622 37101 ft 449 kts 129°
2026-04-07 20:38 37.98550 24.82580 37104 ft 449 kts 129°
2026-04-07 20:38 37.94441 24.88511 37107 ft 448 kts 129°
2026-04-07 20:39 37.90294 24.94495 37108 ft 448 kts 129°
2026-04-07 20:39 37.86211 25.00381 37108 ft 448 kts 129°
2026-04-07 20:40 37.82078 25.06337 37111 ft 448 kts 129°
2026-04-07 20:40 37.77960 25.12252 37113 ft 447 kts 129°
2026-04-07 20:41 37.73870 25.18108 37112 ft 447 kts 129°
2026-04-07 20:41 37.69753 25.23983 37115 ft 447 kts 129°
2026-04-07 20:42 37.65635 25.29860 37118 ft 447 kts 129°
2026-04-07 20:42 37.61521 25.35730 37117 ft 447 kts 130°
2026-04-07 20:43 37.57395 25.41594 37121 ft 447 kts 130°
2026-04-07 20:43 37.53267 25.47444 37123 ft 447 kts 130°
2026-04-07 20:44 37.49135 25.53288 37120 ft 446 kts 130°
2026-04-07 20:44 37.45004 25.59129 37120 ft 446 kts 130°
2026-04-07 20:45 37.40879 25.64955 37125 ft 446 kts 130°
2026-04-07 20:45 37.36754 25.70783 37125 ft 446 kts 130°
2026-04-07 20:46 37.32625 25.76601 37127 ft 446 kts 130°
2026-04-07 20:46 37.28494 25.82411 37126 ft 446 kts 130°
2026-04-07 20:47 37.24360 25.88196 37127 ft 445 kts 130°
2026-04-07 20:47 37.20215 25.93979 37127 ft 445 kts 130°
2026-04-07 20:48 37.16076 25.99757 37127 ft 445 kts 130°
2026-04-07 20:48 37.11965 26.05492 37129 ft 445 kts 130°
2026-04-07 20:49 37.07810 26.11287 37129 ft 444 kts 130°
2026-04-07 20:49 37.03672 26.17036 37130 ft 444 kts 130°
2026-04-07 20:50 36.99556 26.22798 37125 ft 443 kts 127°
2026-04-07 20:50 36.96485 26.29404 37129 ft 439 kts 111°
2026-04-07 20:51 36.94106 26.36434 37122 ft 439 kts 111°
2026-04-07 20:51 36.91711 26.43467 37124 ft 439 kts 111°
2026-04-07 20:52 36.89324 26.50487 37118 ft 439 kts 111°
2026-04-07 20:52 36.86925 26.57503 37119 ft 439 kts 111°
2026-04-07 20:53 36.84519 26.64518 37119 ft 439 kts 111°
2026-04-07 20:53 36.82111 26.71527 37123 ft 439 kts 111°
2026-04-07 20:54 36.79699 26.78527 37126 ft 439 kts 111°
2026-04-07 20:54 36.77282 26.85531 37131 ft 439 kts 111°
2026-04-07 20:55 36.74862 26.92524 37135 ft 439 kts 111°
2026-04-07 20:55 36.72438 26.99522 37135 ft 439 kts 111°
2026-04-07 20:56 36.70020 27.06504 37135 ft 439 kts 111°
2026-04-07 20:56 36.67588 27.13497 37136 ft 440 kts 111°
2026-04-07 20:57 36.65158 27.20437 37135 ft 440 kts 112°
2026-04-07 20:57 36.62707 27.27414 37130 ft 440 kts 112°
2026-04-07 20:58 36.60258 27.34380 37129 ft 440 kts 112°
2026-04-07 20:58 36.57805 27.41354 37125 ft 440 kts 112°
2026-04-07 20:59 36.55346 27.48321 37123 ft 440 kts 112°
2026-04-07 20:59 36.52886 27.55283 37122 ft 440 kts 112°
2026-04-07 21:00 36.49189 27.65724 37120 ft 440 kts 112°
2026-04-07 21:01 36.46704 27.72672 37119 ft 440 kts 112°
2026-04-07 21:01 36.44222 27.79622 37119 ft 440 kts 112°
2026-04-07 21:02 36.41750 27.86584 37119 ft 440 kts 112°
2026-04-07 21:02 36.39272 27.93531 37118 ft 441 kts 112°
2026-04-07 21:03 36.36771 28.00481 37113 ft 441 kts 112°
2026-04-07 21:03 36.34270 28.07419 37115 ft 441 kts 110°
2026-04-07 21:04 36.32654 28.13391 37121 ft 439 kts 105°
2026-04-07 21:04 36.30509 28.21841 37117 ft 440 kts 105°
2026-04-07 21:05 36.28976 28.27853 37113 ft 440 kts 106°
2026-04-07 21:05 36.27120 28.35074 37107 ft 440 kts 106°
2026-04-07 21:06 36.25260 28.42289 37102 ft 440 kts 106°
2026-04-07 21:06 36.23395 28.49515 37098 ft 440 kts 106°
2026-04-07 21:07 36.21533 28.56721 37086 ft 440 kts 106°
2026-04-07 21:07 36.19658 28.63937 37087 ft 440 kts 106°
2026-04-07 21:08 36.17772 28.71150 37091 ft 440 kts 106°
2026-04-07 21:08 36.15884 28.78361 37087 ft 441 kts 106°
2026-04-07 21:09 36.13990 28.85584 37085 ft 441 kts 107°
2026-04-07 21:09 36.12087 28.92805 37088 ft 442 kts 107°
2026-04-07 21:10 36.10177 29.00030 37084 ft 442 kts 107°
2026-04-07 21:10 36.08263 29.07261 37092 ft 443 kts 107°
2026-04-07 21:11 36.06345 29.14504 37090 ft 444 kts 107°
2026-04-07 21:11 36.04420 29.21745 37097 ft 444 kts 107°
2026-04-07 21:12 36.02483 29.29001 37083 ft 445 kts 107°
2026-04-07 21:12 36.00538 29.36265 37081 ft 445 kts 107°
2026-04-07 21:13 35.98592 29.43519 37077 ft 446 kts 107°
2026-04-07 21:13 35.96637 29.50788 37073 ft 446 kts 107°
2026-04-07 21:14 35.94676 29.58059 37067 ft 447 kts 107°
2026-04-07 21:14 35.92720 29.65338 37066 ft 447 kts 107°
2026-04-07 21:15 35.90758 29.72620 37063 ft 447 kts 107°
2026-04-07 21:15 35.88794 29.79906 37061 ft 448 kts 108°
2026-04-07 21:16 35.86834 29.87142 37065 ft 448 kts 108°
2026-04-07 21:16 35.84854 29.94423 37069 ft 448 kts 108°
2026-04-07 21:17 35.82871 30.01715 37067 ft 448 kts 107°
2026-04-07 21:17 35.81000 30.09037 37066 ft 448 kts 106°
2026-04-07 21:18 35.79193 30.16386 37067 ft 448 kts 106°
2026-04-07 21:18 35.77364 30.23729 37068 ft 449 kts 107°
2026-04-07 21:19 35.75505 30.31062 37063 ft 449 kts 107°
2026-04-07 21:19 35.73637 30.38392 37064 ft 449 kts 107°
2026-04-07 21:20 35.71769 30.45729 37062 ft 449 kts 107°
2026-04-07 21:20 35.69888 30.53053 37063 ft 449 kts 107°
2026-04-07 21:21 35.68002 30.60376 37059 ft 449 kts 107°
2026-04-07 21:21 35.66118 30.67708 37061 ft 450 kts 107°
2026-04-07 21:22 35.64228 30.75042 37062 ft 450 kts 107°
2026-04-07 21:22 35.62336 30.82363 37063 ft 450 kts 107°
2026-04-07 21:23 35.61072 30.87265 37066 ft 450 kts 107°
2026-04-07 21:23 35.58612 30.97033 37063 ft 450 kts 107°
2026-04-07 21:24 35.56774 31.04337 37062 ft 450 kts 107°
2026-04-07 21:24 35.54908 31.11664 37073 ft 449 kts 107°
2026-04-07 21:25 35.53030 31.19007 37074 ft 449 kts 107°
2026-04-07 21:25 35.51166 31.26334 37081 ft 449 kts 107°
2026-04-07 21:26 35.49303 31.33646 37082 ft 449 kts 107°
2026-04-07 21:26 35.47429 31.40950 37081 ft 449 kts 108°
2026-04-07 21:27 35.45555 31.48200 37084 ft 449 kts 108°
2026-04-07 21:27 35.43656 31.55527 36758 ft 458 kts 108°
2026-04-07 21:27 35.42690 31.59252 36199 ft 457 kts 107°
2026-04-07 21:28 35.41732 31.62951 35675 ft 453 kts 107°
2026-04-07 21:28 35.40783 31.66622 35132 ft 450 kts 106°
2026-04-07 21:28 35.39841 31.70261 34576 ft 447 kts 106°
2026-04-07 21:28 35.38902 31.73881 34017 ft 444 kts 105°
2026-04-07 21:29 35.37965 31.77473 33433 ft 440 kts 105°
2026-04-07 21:29 35.37038 31.81017 32915 ft 434 kts 105°
2026-04-07 21:29 35.36129 31.84481 32385 ft 430 kts 105°
2026-04-07 21:29 35.35396 31.87257 31970 ft 426 kts 105°
2026-04-07 21:30 35.34487 31.90692 31466 ft 421 kts 105°
2026-04-07 21:30 35.33594 31.94092 30957 ft 417 kts 104°
2026-04-07 21:30 35.32713 31.97454 30485 ft 413 kts 104°
2026-04-07 21:30 35.31839 32.00785 29979 ft 409 kts 104°
2026-04-07 21:31 35.30977 32.04075 29526 ft 402 kts 104°
2026-04-07 21:31 35.30130 32.07305 29091 ft 396 kts 104°
2026-04-07 21:31 35.29298 32.10489 28671 ft 389 kts 104°
2026-04-07 21:31 35.28481 32.13620 28252 ft 383 kts 104°
2026-04-07 21:32 35.27677 32.16702 27849 ft 378 kts 104°
2026-04-07 21:32 35.26884 32.19747 27443 ft 373 kts 104°
2026-04-07 21:32 35.26098 32.22752 27023 ft 369 kts 104°
2026-04-07 21:32 35.25319 32.25724 26593 ft 365 kts 104°
2026-04-07 21:33 35.24545 32.28668 26172 ft 362 kts 104°
2026-04-07 21:33 35.23779 32.31581 25740 ft 359 kts 104°
2026-04-07 21:33 35.23012 32.34490 25302 ft 357 kts 104°
2026-04-07 21:33 35.22252 32.37371 24866 ft 355 kts 104°
2026-04-07 21:34 35.21495 32.40242 24408 ft 354 kts 104°
2026-04-07 21:34 35.20741 32.43106 23958 ft 353 kts 104°
2026-04-07 21:34 35.19987 32.45961 23471 ft 353 kts 104°
2026-04-07 21:34 35.19231 32.48812 23002 ft 351 kts 104°
2026-04-07 21:35 35.18483 32.51638 22564 ft 348 kts 104°
2026-04-07 21:35 35.17740 32.54441 22136 ft 346 kts 104°
2026-04-07 21:35 35.16998 32.57228 21700 ft 344 kts 104°
2026-04-07 21:35 35.16262 32.59995 21271 ft 342 kts 105°
2026-04-07 21:36 35.15527 32.62751 20858 ft 341 kts 105°
2026-04-07 21:36 35.14795 32.65501 20436 ft 340 kts 104°
2026-04-07 21:36 35.14068 32.68239 20025 ft 338 kts 104°
2026-04-07 21:36 35.13353 32.70933 19614 ft 338 kts 105°
2026-04-07 21:37 35.12625 32.73661 19197 ft 337 kts 105°
2026-04-07 21:37 35.11897 32.76380 18794 ft 337 kts 105°
2026-04-07 21:37 35.11170 32.79093 18376 ft 337 kts 105°
2026-04-07 21:37 35.10443 32.81811 17923 ft 336 kts 105°
2026-04-07 21:38 35.09716 32.84517 17526 ft 334 kts 105°
2026-04-07 21:38 35.08993 32.87203 17127 ft 332 kts 105°
2026-04-07 21:38 35.08276 32.89868 16736 ft 331 kts 105°
2026-04-07 21:38 35.07408 32.92483 16341 ft 332 kts 116°
2026-04-07 21:39 35.06076 32.94792 15945 ft 334 kts 130°
2026-04-07 21:39 35.04391 32.96752 15553 ft 334 kts 136°
2026-04-07 21:39 35.02675 32.98662 15157 ft 334 kts 136°
2026-04-07 21:39 35.00964 33.00573 14760 ft 334 kts 136°
2026-04-07 21:40 34.99252 33.02490 14368 ft 333 kts 136°
2026-04-07 21:40 34.97551 33.04398 13959 ft 333 kts 136°
2026-04-07 21:40 34.95841 33.06310 13535 ft 333 kts 136°
2026-04-07 21:40 34.94139 33.08209 13129 ft 331 kts 136°
2026-04-07 21:41 34.92447 33.10097 12723 ft 329 kts 136°
2026-04-07 21:41 34.90767 33.11975 12313 ft 327 kts 136°
2026-04-07 21:41 34.89095 33.13846 11914 ft 325 kts 136°
2026-04-07 21:41 34.87433 33.15703 11501 ft 324 kts 136°
2026-04-07 21:42 34.85775 33.17555 11081 ft 322 kts 136°
2026-04-07 21:42 34.84125 33.19395 10658 ft 321 kts 136°
2026-04-07 21:42 34.82479 33.21231 10262 ft 319 kts 136°
2026-04-07 21:42 34.80847 33.23049 9892 ft 316 kts 136°
2026-04-07 21:43 34.79255 33.24816 9755 ft 302 kts 136°
2026-04-07 21:43 34.77762 33.26471 9615 ft 280 kts 135°
2026-04-07 21:43 34.76326 33.28064 8889 ft 281 kts 136°
2026-04-07 21:43 34.74875 33.29677 8133 ft 283 kts 136°
2026-04-07 21:44 34.73437 33.31273 7639 ft 275 kts 136°
2026-04-07 21:44 34.72047 33.32813 7226 ft 266 kts 137°
2026-04-07 21:44 34.70705 33.34299 6817 ft 256 kts 137°
2026-04-07 21:44 34.69445 33.35774 6417 ft 247 kts 127°
2026-04-07 21:45 34.68871 33.37649 6025 ft 235 kts 87°
2026-04-07 21:45 34.69326 33.39479 5632 ft 227 kts 52°
2026-04-07 21:45 34.70390 33.40888 5243 ft 226 kts 45°
2026-04-07 21:45 34.71413 33.42315 4872 ft 223 kts 48°
2026-04-07 21:46 34.72369 33.43730 4515 ft 215 kts 49°
2026-04-07 21:46 34.73285 33.45095 4110 ft 202 kts 48°
2026-04-07 21:46 34.74204 33.46324 3790 ft 190 kts 44°
2026-04-07 21:46 34.75087 33.47422 3484 ft 172 kts 43°
2026-04-07 21:47 34.75900 33.48417 3179 ft 159 kts 42°
2026-04-07 21:47 34.76657 33.49341 2912 ft 150 kts 43°
2026-04-07 21:47 34.77381 33.50223 2660 ft 145 kts 43°
2026-04-07 21:47 34.78088 33.51084 2412 ft 143 kts 43°
2026-04-07 21:48 34.78793 33.51940 2158 ft 143 kts 43°
2026-04-07 21:48 34.79494 33.52788 1918 ft 141 kts 43°
2026-04-07 21:48 34.80190 33.53630 1742 ft 141 kts 43°
2026-04-07 21:48 34.80883 33.54472 1553 ft 141 kts 44°
2026-04-07 21:49 34.81574 33.55314 1372 ft 140 kts 44°
2026-04-07 21:49 34.82263 33.56153 1180 ft 140 kts 44°
2026-04-07 21:49 34.82947 33.56987 1003 ft 139 kts 44°
2026-04-07 21:49 34.83626 33.57813 824 ft 137 kts 43°
2026-04-07 21:50 34.84298 33.58625 663 ft 135 kts 43°
2026-04-07 21:50 34.84958 33.59429 464 ft 134 kts 44°
2026-04-07 21:50 34.85612 33.60229 294 ft 133 kts 43°
2026-04-07 21:50 34.86267 33.61026 124 ft 133 kts 44°
2026-04-07 21:51 34.86692 33.61563 27 ft 130 kts 45°
2026-04-07 21:51 34.87239 33.62226 21 ft 87 kts 45°
2026-04-07 21:51 34.87561 33.62620 21 ft 53 kts 45°
2026-04-07 21:51 34.87796 33.62909 22 ft 28 kts 43°
2026-04-07 21:52 34.87847 33.62911 23 ft 4 kts 301°
2026-04-07 21:52 34.87868 33.62884 22 ft 10 kts 316°
2026-04-07 21:52 34.87951 33.62788 21 ft 15 kts 301°
2026-04-07 21:52 34.87902 33.62677 21 ft 18 kts 224°
2026-04-07 21:53 34.87803 33.62557 21 ft 25 kts 225°
2026-04-07 21:53 34.87666 33.62389 20 ft 29 kts 225°
2026-04-07 21:53 34.87531 33.62224 20 ft 26 kts 225°
2026-04-07 21:53 34.87397 33.62060 20 ft 28 kts 225°
2026-04-07 21:54 34.87253 33.61884 21 ft 30 kts 225°
2026-04-07 21:54 34.87101 33.61699 21 ft 32 kts 225°
2026-04-07 21:54 34.86955 33.61520 21 ft 28 kts 225°
2026-04-07 21:54 34.86878 33.61386 21 ft 13 kts 289°
2026-04-07 21:55 34.86943 33.61301 22 ft 11 kts 315°
2026-04-07 21:55 34.86975 33.61263 20 ft 6 kts 315°
2026-04-07 21:55 34.87001 33.61227 20 ft 5 kts 295°
2026-04-07 21:55 34.86980 33.61188 21 ft 10 kts 226°
2026-04-07 21:56 34.86948 33.61141 20 ft 5 kts 230°
2026-04-07 21:56 34.86941 33.61131 20 ft 0 kts 230°